createdAt,value
2018-03-20T00:02:15.546Z,-0.66
2018-03-20T00:04:43.095Z,-0.76
2018-03-20T00:07:10.695Z,-0.75
2018-03-20T00:09:38.242Z,-0.73
2018-03-20T00:12:05.805Z,-0.69
2018-03-20T00:14:33.352Z,-0.58
2018-03-20T00:17:00.908Z,-0.70
2018-03-20T00:19:28.465Z,-0.77
2018-03-20T00:21:56.033Z,-1.02
2018-03-20T00:24:23.568Z,-1.30
2018-03-20T00:26:51.091Z,-1.00
2018-03-20T00:29:18.722Z,-0.82
2018-03-20T00:31:46.256Z,-0.96
2018-03-20T00:34:13.846Z,-0.96
2018-03-20T00:36:41.399Z,-1.11
2018-03-20T00:39:08.951Z,-0.96
2018-03-20T00:41:36.624Z,-0.92
2018-03-20T00:44:04.184Z,-0.99
2018-03-20T00:46:31.716Z,-0.83
2018-03-20T00:48:59.283Z,-1.16
2018-03-20T00:51:26.807Z,-1.05
2018-03-20T00:53:54.417Z,-1.08
2018-03-20T00:56:21.984Z,-1.09
2018-03-20T00:58:49.536Z,-1.08
2018-03-20T01:01:17.119Z,-0.97
2018-03-20T01:03:44.661Z,-1.01
2018-03-20T01:06:12.214Z,-1.23
2018-03-20T01:08:39.746Z,-1.08
2018-03-20T01:11:07.312Z,-1.12
2018-03-20T01:13:34.852Z,-1.21
2018-03-20T01:16:02.406Z,-1.02
2018-03-20T01:18:29.948Z,-1.32
2018-03-20T01:20:57.487Z,-1.23
2018-03-20T01:23:25.935Z,-1.47
2018-03-20T01:25:53.469Z,-1.17
2018-03-20T01:28:21.031Z,-1.15
2018-03-20T01:30:48.563Z,-1.25
2018-03-20T01:33:16.124Z,-1.40
2018-03-20T01:35:43.649Z,-1.40
2018-03-20T01:38:11.281Z,-1.48
2018-03-20T01:40:38.806Z,-1.50
2018-03-20T01:43:06.348Z,-1.60
2018-03-20T01:45:33.904Z,-1.91
2018-03-20T01:48:01.444Z,-1.63
2018-03-20T01:50:29.005Z,-1.48
2018-03-20T01:53:08.265Z,-1.40
2018-03-20T01:55:35.845Z,-1.50
2018-03-20T01:58:03.422Z,-1.67
2018-03-20T02:00:31.049Z,-1.61
2018-03-20T02:02:58.580Z,-1.64
2018-03-20T02:05:26.651Z,-1.84
2018-03-20T02:07:54.196Z,-1.69
2018-03-20T02:10:21.737Z,-1.60
2018-03-20T02:12:49.311Z,-1.56
2018-03-20T02:15:16.864Z,-1.80
2018-03-20T02:17:44.432Z,-1.75
2018-03-20T02:20:11.968Z,-1.68
2018-03-20T02:22:39.533Z,-1.55
2018-03-20T02:25:07.055Z,-1.70
2018-03-20T02:27:34.638Z,-1.79
2018-03-20T02:30:02.184Z,-1.72
2018-03-20T02:32:29.779Z,-1.69
2018-03-20T02:34:57.310Z,-1.68
2018-03-20T02:37:24.835Z,-1.90
2018-03-20T02:39:52.403Z,-1.75
2018-03-20T02:42:20.034Z,-1.93
2018-03-20T02:44:47.599Z,-1.86
2018-03-20T02:47:15.148Z,-1.66
2018-03-20T02:49:42.716Z,-1.70
2018-03-20T02:52:10.252Z,-1.77
2018-03-20T02:54:37.812Z,-1.79
2018-03-20T02:57:05.392Z,-1.72
2018-03-20T02:59:32.982Z,-1.74
2018-03-20T03:02:00.508Z,-1.75
2018-03-20T03:04:28.062Z,-1.80
2018-03-20T03:06:55.616Z,-1.83
2018-03-20T03:09:23.157Z,-1.82
2018-03-20T03:11:50.722Z,-1.83
2018-03-20T03:14:18.297Z,-1.78
2018-03-20T03:16:46.271Z,-1.69
2018-03-20T03:19:14.022Z,-1.72
2018-03-20T03:21:41.628Z,-1.73
2018-03-20T03:24:10.131Z,-1.71
2018-03-20T03:26:37.759Z,-1.77
2018-03-20T03:29:05.522Z,-1.73
2018-03-20T03:31:33.075Z,-1.82
2018-03-20T03:34:00.635Z,-1.76
2018-03-20T03:36:28.189Z,-1.74
2018-03-20T03:38:55.768Z,-1.78
2018-03-20T03:41:23.295Z,-1.79
2018-03-20T03:43:50.925Z,-1.97
2018-03-20T03:46:18.472Z,-1.93
2018-03-20T03:48:46.178Z,-2.03
2018-03-20T03:51:13.709Z,-2.00
2018-03-20T03:53:41.265Z,-2.19
2018-03-20T03:56:08.850Z,-2.19
2018-03-20T03:58:36.375Z,-2.07
2018-03-20T04:01:03.938Z,-2.04
2018-03-20T04:03:31.485Z,-2.14
2018-03-20T04:05:59.057Z,-2.37
2018-03-20T04:08:27.064Z,-2.20
2018-03-20T04:10:54.617Z,-2.07
2018-03-20T04:13:22.162Z,-2.02
2018-03-20T04:15:49.740Z,-2.11
2018-03-20T04:18:17.271Z,-2.06
2018-03-20T04:20:44.797Z,-2.11
2018-03-20T04:23:12.348Z,-2.06
2018-03-20T04:25:39.884Z,-2.12
2018-03-20T04:28:07.435Z,-2.15
2018-03-20T04:30:34.954Z,-2.23
2018-03-20T04:33:02.528Z,-2.25
2018-03-20T04:35:30.056Z,-2.32
2018-03-20T04:37:57.613Z,-2.24
2018-03-20T04:40:25.128Z,-2.20
2018-03-20T04:42:52.716Z,-2.10
2018-03-20T04:45:20.252Z,-2.14
2018-03-20T04:47:47.808Z,-2.16
2018-03-20T04:50:15.351Z,-2.37
2018-03-20T04:52:42.936Z,-2.38
2018-03-20T04:55:10.509Z,-2.31
2018-03-20T04:57:38.043Z,-2.33
2018-03-20T05:00:05.709Z,-2.47
2018-03-20T05:02:33.236Z,-2.43
2018-03-20T05:05:00.800Z,-2.44
2018-03-20T05:07:28.344Z,-2.45
2018-03-20T05:09:55.899Z,-2.64
2018-03-20T05:12:23.423Z,-2.48
2018-03-20T05:14:50.959Z,-2.55
2018-03-20T05:17:18.545Z,-2.65
2018-03-20T05:19:51.684Z,-2.64
2018-03-20T05:25:22.260Z,-3.06
2018-03-20T05:27:49.827Z,-2.92
2018-03-20T05:30:17.371Z,-2.86
2018-03-20T05:32:44.948Z,-2.94
2018-03-20T05:35:12.502Z,-3.01
2018-03-20T05:37:40.067Z,-2.91
2018-03-20T05:40:07.603Z,-2.94
2018-03-20T05:42:35.163Z,-2.87
2018-03-20T05:45:02.711Z,-2.84
2018-03-20T05:47:35.929Z,-2.89
2018-03-20T05:50:09.156Z,-2.95
2018-03-20T05:52:36.707Z,-3.02
2018-03-20T05:55:04.455Z,-2.96
2018-03-20T05:57:32.037Z,-2.93
2018-03-20T05:59:59.617Z,-3.11
2018-03-20T06:02:27.155Z,-2.94
2018-03-20T06:04:54.723Z,-2.83
2018-03-20T06:07:22.333Z,-2.84
2018-03-20T06:09:49.888Z,-2.80
2018-03-20T06:12:17.433Z,-2.75
2018-03-20T06:14:45.142Z,-2.77
2018-03-20T06:17:12.832Z,-2.66
2018-03-20T06:19:42.975Z,-2.65
2018-03-20T06:22:10.588Z,-2.65
2018-03-20T06:24:38.226Z,-2.67
2018-03-20T06:27:05.742Z,-2.66
2018-03-20T06:29:33.749Z,-2.55
2018-03-20T06:32:01.319Z,-2.56
2018-03-20T06:34:29.329Z,-2.35
2018-03-20T06:36:56.890Z,-2.33
2018-03-20T06:39:24.501Z,-2.31
2018-03-20T06:41:52.057Z,-2.33
2018-03-20T06:44:19.590Z,-2.24
2018-03-20T06:46:47.168Z,-2.19
2018-03-20T06:49:14.712Z,-2.14
2018-03-20T06:51:42.289Z,-2.03
2018-03-20T06:54:09.811Z,-2.00
2018-03-20T06:56:37.414Z,-1.91
2018-03-20T06:59:05.676Z,-1.84
2018-03-20T07:01:34.507Z,-1.79
2018-03-20T07:04:02.096Z,-1.71
2018-03-20T07:06:29.881Z,-1.62
2018-03-20T07:08:57.683Z,-1.66
2018-03-20T07:11:25.224Z,-1.65
2018-03-20T07:13:55.940Z,-1.62
2018-03-20T07:16:23.670Z,-1.54
2018-03-20T07:18:51.249Z,-1.50
2018-03-20T07:21:18.789Z,-1.42
2018-03-20T07:23:46.348Z,-1.39
2018-03-20T07:26:13.872Z,-1.21
2018-03-20T07:28:41.391Z,-1.09
2018-03-20T07:31:08.979Z,-1.09
2018-03-20T07:33:36.498Z,-0.99
2018-03-20T07:36:06.646Z,-0.96
2018-03-20T07:38:34.397Z,-0.90
2018-03-20T07:41:04.577Z,-0.84
2018-03-20T07:43:32.379Z,-0.71
2018-03-20T07:46:00.143Z,-0.62
2018-03-20T07:48:27.691Z,-0.64
2018-03-20T07:50:55.623Z,-0.66
2018-03-20T07:53:23.132Z,-0.69
2018-03-20T07:55:50.727Z,-0.60
2018-03-20T07:58:18.237Z,-0.62
2018-03-20T08:00:45.771Z,-0.59
2018-03-20T08:03:13.396Z,-0.51
2018-03-20T08:05:40.932Z,-0.39
2018-03-20T08:08:08.560Z,-0.37
2018-03-20T08:10:36.090Z,-0.07
2018-03-20T08:13:03.659Z,0.04
2018-03-20T08:15:32.152Z,0.18
2018-03-20T08:17:59.738Z,0.14
2018-03-20T08:20:27.289Z,0.34
2018-03-20T08:22:54.852Z,0.39
2018-03-20T08:25:22.400Z,0.60
2018-03-20T08:27:50.010Z,0.78
2018-03-20T08:30:17.559Z,0.84
2018-03-20T08:32:45.083Z,0.87
2018-03-20T08:35:12.629Z,0.82
2018-03-20T08:37:40.206Z,0.79
2018-03-20T08:40:07.909Z,0.68
2018-03-20T08:42:35.446Z,0.97
2018-03-20T08:45:03.030Z,0.70
2018-03-20T08:47:30.552Z,0.85
2018-03-20T08:49:58.086Z,1.00
2018-03-20T08:52:25.631Z,0.99
2018-03-20T08:54:53.162Z,1.18
2018-03-20T08:57:20.699Z,1.25
2018-03-20T08:59:48.255Z,1.17
2018-03-20T09:02:16.570Z,1.33
2018-03-20T09:04:44.468Z,1.39
2018-03-20T09:07:12.160Z,1.48
2018-03-20T09:09:39.694Z,1.43
2018-03-20T09:12:09.377Z,1.31
2018-03-20T09:14:36.884Z,1.23
2018-03-20T09:17:04.778Z,1.21
2018-03-20T09:19:32.599Z,1.38
2018-03-20T09:22:04.450Z,1.43
2018-03-20T09:24:32.386Z,1.09
2018-03-20T09:27:00.278Z,1.07
2018-03-20T09:29:28.005Z,1.00
2018-03-20T09:31:55.518Z,0.97
2018-03-20T09:34:23.287Z,1.01
2018-03-20T09:36:50.918Z,0.89
2018-03-20T09:39:19.455Z,1.14
2018-03-20T09:41:47.027Z,1.15
2018-03-20T09:44:14.627Z,1.21
2018-03-20T09:46:42.487Z,1.25
2018-03-20T09:49:10.171Z,1.16
2018-03-20T09:51:37.761Z,1.52
2018-03-20T09:54:05.686Z,1.61
2018-03-20T09:56:33.222Z,1.54
2018-03-20T09:59:00.740Z,1.92
2018-03-20T10:01:28.313Z,1.56
2018-03-20T10:03:55.840Z,1.70
2018-03-20T10:06:23.400Z,1.89
2018-03-20T10:08:50.932Z,1.74
2018-03-20T10:11:18.500Z,2.02
2018-03-20T10:13:46.031Z,2.40
2018-03-20T10:16:13.600Z,2.43
2018-03-20T10:18:44.062Z,2.10
2018-03-20T10:21:13.061Z,2.13
2018-03-20T10:23:44.433Z,2.59
2018-03-20T10:26:13.932Z,2.67
2018-03-20T10:28:44.067Z,2.80
2018-03-20T10:31:13.168Z,2.82
2018-03-20T10:33:42.967Z,3.02
2018-03-20T10:36:13.262Z,3.02
2018-03-20T10:38:41.507Z,2.82
2018-03-20T10:41:09.253Z,2.90
2018-03-20T10:43:41.969Z,2.91
2018-03-20T10:46:10.283Z,3.01
2018-03-20T10:48:40.534Z,2.98
2018-03-20T10:51:10.498Z,2.87
2018-03-20T10:53:41.757Z,2.97
2018-03-20T10:56:10.588Z,3.00
2018-03-20T10:58:41.975Z,3.10
2018-03-20T11:01:15.411Z,3.09
2018-03-20T11:03:42.959Z,3.17
2018-03-20T11:06:13.411Z,3.40
2018-03-20T11:08:44.269Z,3.54
2018-03-20T11:11:14.501Z,3.40
2018-03-20T11:13:45.123Z,3.32
2018-03-20T11:16:15.646Z,3.23
2018-03-20T11:18:44.225Z,3.19
2018-03-20T11:21:14.948Z,3.36
2018-03-20T11:23:46.094Z,3.37
2018-03-20T11:26:13.722Z,3.44
2018-03-20T11:28:47.725Z,3.53
2018-03-20T11:31:19.007Z,3.54
2018-03-20T11:33:50.675Z,3.40
2018-03-20T11:36:21.202Z,3.34
2018-03-20T11:38:48.934Z,3.50
2018-03-20T11:41:18.380Z,3.47
2018-03-20T11:43:47.682Z,3.63
2018-03-20T11:46:15.396Z,3.59
2018-03-20T11:48:43.054Z,3.74
2018-03-20T11:51:15.875Z,3.80
2018-03-20T11:53:49.146Z,3.89
2018-03-20T11:56:22.244Z,3.88
2018-03-20T11:58:52.208Z,4.07
2018-03-20T12:01:20.497Z,4.31
2018-03-20T12:03:50.839Z,4.11
2018-03-20T12:06:19.928Z,4.06
2018-03-20T12:08:51.276Z,4.31
2018-03-20T12:11:18.783Z,4.34
2018-03-20T12:13:46.356Z,4.45
2018-03-20T12:16:13.868Z,4.45
2018-03-20T12:18:41.406Z,4.20
2018-03-20T12:21:08.911Z,4.44
2018-03-20T12:23:36.525Z,4.55
2018-03-20T12:26:04.044Z,4.62
2018-03-20T12:28:31.596Z,4.61
2018-03-20T12:30:59.131Z,4.59
2018-03-20T12:33:26.670Z,4.30
2018-03-20T12:35:54.232Z,4.39
2018-03-20T12:38:21.776Z,4.30
2018-03-20T12:40:49.343Z,4.25
2018-03-20T12:43:16.860Z,4.25
2018-03-20T12:45:44.437Z,4.23
2018-03-20T12:48:11.945Z,4.24
2018-03-20T12:50:39.497Z,4.30
2018-03-20T12:53:07.020Z,4.37
2018-03-20T12:55:34.572Z,4.11
2018-03-20T12:58:02.248Z,4.18
2018-03-20T13:00:29.856Z,4.13
2018-03-20T13:02:57.377Z,4.04
2018-03-20T13:05:24.965Z,4.02
2018-03-20T13:07:52.589Z,4.11
2018-03-20T13:10:20.152Z,4.20
2018-03-20T13:12:47.667Z,4.19
2018-03-20T13:15:15.219Z,4.22
2018-03-20T13:17:42.790Z,4.08
2018-03-20T13:20:10.348Z,4.07
2018-03-20T13:22:37.903Z,4.09
2018-03-20T13:25:06.229Z,4.34
2018-03-20T13:27:34.318Z,4.34
2018-03-20T13:30:03.418Z,4.33
2018-03-20T13:32:30.974Z,4.41
2018-03-20T13:35:01.092Z,4.53
2018-03-20T13:37:28.827Z,4.52
2018-03-20T13:39:57.132Z,4.48
2018-03-20T13:42:24.731Z,4.40
2018-03-20T13:44:55.085Z,4.64
2018-03-20T13:47:26.899Z,4.62
2018-03-20T13:49:54.620Z,4.65
2018-03-20T13:52:22.144Z,4.44
2018-03-20T13:54:50.232Z,4.38
2018-03-20T13:57:17.743Z,4.56
2018-03-20T13:59:45.310Z,4.76
2018-03-20T14:02:13.504Z,5.04
2018-03-20T14:04:41.066Z,5.22
2018-03-20T14:07:08.618Z,5.15
2018-03-20T14:09:36.449Z,5.23
2018-03-20T14:12:04.267Z,5.21
2018-03-20T14:14:31.892Z,5.24
2018-03-20T14:16:59.439Z,5.33
2018-03-20T14:19:26.979Z,5.66
2018-03-20T14:21:57.087Z,5.67
2018-03-20T14:24:28.345Z,5.70
2018-03-20T14:26:59.943Z,5.71
2018-03-20T14:29:31.963Z,5.63
2018-03-20T14:32:04.103Z,5.76
2018-03-20T14:34:35.476Z,5.72
2018-03-20T14:37:06.401Z,6.06
2018-03-20T14:42:14.763Z,6.23
2018-03-20T14:44:47.562Z,6.53
2018-03-20T14:47:23.420Z,6.42
2018-03-20T14:49:55.621Z,6.40
2018-03-20T14:52:31.882Z,6.52
2018-03-20T14:55:03.428Z,6.56
2018-03-20T14:57:37.954Z,6.69
2018-03-20T15:00:19.916Z,7.07
2018-03-20T15:02:54.244Z,7.38
2018-03-20T15:05:26.298Z,7.53
2018-03-20T15:07:58.728Z,7.48
2018-03-20T15:10:29.623Z,7.57
2018-03-20T15:13:00.908Z,7.59
2018-03-20T15:15:31.778Z,7.96
2018-03-20T15:18:03.797Z,8.25
2018-03-20T15:20:36.873Z,8.15
2018-03-20T15:23:07.487Z,8.17
2018-03-20T15:25:40.033Z,8.53
2018-03-20T15:28:11.297Z,9.02
2018-03-20T15:30:43.242Z,8.93
2018-03-20T15:33:14.294Z,9.18
2018-03-20T15:35:47.108Z,9.03
2018-03-20T15:38:19.657Z,9.13
2018-03-20T15:40:50.579Z,9.18
2018-03-20T15:43:22.080Z,8.95
2018-03-20T15:45:53.024Z,8.56
2018-03-20T15:48:24.864Z,7.88
2018-03-20T15:50:55.569Z,9.15
2018-03-20T15:53:26.613Z,9.66
2018-03-20T15:55:58.468Z,8.30
2018-03-20T15:58:31.092Z,7.91
2018-03-20T16:00:59.875Z,7.97
2018-03-20T16:03:29.429Z,8.19
2018-03-20T16:05:59.398Z,7.67
2018-03-20T16:08:32.064Z,7.88
2018-03-20T16:11:00.224Z,8.30
2018-03-20T16:13:27.972Z,8.00
2018-03-20T16:15:55.482Z,7.76
2018-03-20T16:18:27.373Z,8.01
2018-03-20T16:20:57.978Z,9.11
2018-03-20T16:23:26.005Z,8.05
2018-03-20T16:25:53.639Z,7.41
2018-03-20T16:28:23.517Z,7.56
2018-03-20T16:30:53.575Z,7.15
2018-03-20T16:33:22.264Z,8.48
2018-03-20T16:35:51.355Z,8.28
2018-03-20T16:38:19.111Z,8.12
2018-03-20T16:40:46.656Z,7.93
2018-03-20T16:43:16.871Z,8.30
2018-03-20T16:45:45.364Z,7.89
2018-03-20T16:48:13.505Z,8.41
2018-03-20T16:50:41.898Z,7.85
2018-03-20T16:53:10.817Z,7.77
2018-03-20T16:55:43.053Z,7.52
2018-03-20T16:58:11.325Z,7.46
2018-03-20T17:00:39.252Z,7.46
2018-03-20T17:03:07.569Z,7.19
2018-03-20T17:05:35.602Z,7.05
2018-03-20T17:08:04.360Z,7.40
2018-03-20T17:10:31.906Z,7.10
2018-03-20T17:13:01.501Z,7.00
2018-03-20T17:15:31.049Z,6.92
2018-03-20T17:18:02.693Z,7.12
2018-03-20T17:20:30.641Z,6.98
2018-03-20T17:23:01.924Z,6.74
2018-03-20T17:25:31.993Z,6.72
2018-03-20T17:28:02.542Z,6.66
2018-03-20T17:30:32.594Z,6.52
2018-03-20T17:33:03.821Z,6.40
2018-03-20T17:35:38.697Z,6.37
2018-03-20T17:38:06.926Z,6.31
2018-03-20T17:40:35.462Z,6.29
2018-03-20T17:43:03.255Z,6.15
2018-03-20T17:45:34.827Z,6.18
2018-03-20T17:48:02.388Z,6.16
2018-03-20T17:50:29.922Z,6.16
2018-03-20T17:52:57.474Z,6.20
2018-03-20T17:55:25.004Z,6.06
2018-03-20T17:57:52.561Z,5.97
2018-03-20T18:00:20.082Z,5.99
2018-03-20T18:02:47.636Z,5.74
2018-03-20T18:05:15.172Z,5.75
2018-03-20T18:07:42.687Z,5.69
2018-03-20T18:10:10.230Z,5.66
2018-03-20T18:12:37.751Z,5.58
2018-03-20T18:15:05.436Z,5.68
2018-03-20T18:17:32.991Z,5.60
2018-03-20T18:20:00.548Z,5.58
2018-03-20T18:22:28.100Z,5.47
2018-03-20T18:24:55.642Z,5.41
2018-03-20T18:27:23.221Z,5.38
2018-03-20T18:29:51.110Z,5.39
2018-03-20T18:32:18.663Z,5.07
2018-03-20T18:34:46.883Z,5.27
2018-03-20T18:37:15.629Z,5.27
2018-03-20T18:39:43.233Z,5.28
2018-03-20T18:42:10.783Z,5.26
2018-03-20T18:44:38.291Z,5.14
2018-03-20T18:47:05.963Z,5.14
2018-03-20T18:49:33.491Z,5.13
2018-03-20T18:52:01.039Z,5.03
2018-03-20T18:54:28.743Z,5.04
2018-03-20T18:56:56.320Z,4.95
2018-03-20T18:59:23.844Z,4.92
2018-03-20T19:01:51.404Z,4.85
2018-03-20T19:04:18.956Z,4.69
2018-03-20T19:06:46.559Z,4.68
2018-03-20T19:09:14.128Z,4.64
2018-03-20T19:11:41.768Z,4.58
2018-03-20T19:14:09.371Z,4.53
2018-03-20T19:16:37.018Z,4.44
2018-03-20T19:19:05.600Z,4.47
2018-03-20T19:21:33.385Z,4.38
2018-03-20T19:24:00.929Z,4.35
2018-03-20T19:26:28.687Z,4.32
2018-03-20T19:28:56.315Z,4.35
2018-03-20T19:31:24.569Z,4.18
2018-03-20T19:33:52.104Z,4.22
2018-03-20T19:36:19.788Z,4.15
2018-03-20T19:38:48.088Z,3.92
2018-03-20T19:41:15.829Z,4.17
2018-03-20T19:43:43.376Z,4.14
2018-03-20T19:46:11.411Z,4.14
2018-03-20T19:48:38.931Z,4.16
2018-03-20T19:51:11.514Z,4.06
2018-03-20T19:53:39.152Z,4.07
2018-03-20T19:56:06.848Z,3.96
2018-03-20T19:58:34.378Z,3.89
2018-03-20T20:01:01.929Z,3.88
2018-03-20T20:03:29.495Z,3.87
2018-03-20T20:05:57.085Z,3.87
2018-03-20T20:08:24.660Z,3.78
2018-03-20T20:10:52.228Z,3.84
2018-03-20T20:13:19.772Z,3.92
2018-03-20T20:15:47.307Z,3.78
2018-03-20T20:18:14.857Z,3.63
2018-03-20T20:20:42.409Z,3.50
2018-03-20T20:23:09.962Z,3.53
2018-03-20T20:25:37.523Z,3.45
2018-03-20T20:28:05.081Z,3.44
2018-03-20T20:30:32.688Z,3.45
2018-03-20T20:33:00.245Z,3.48
2018-03-20T20:35:27.784Z,3.45
2018-03-20T20:37:55.367Z,2.94
2018-03-20T20:40:22.892Z,3.09
2018-03-20T20:42:50.440Z,2.99
2018-03-20T20:45:17.952Z,2.85
2018-03-20T20:47:45.487Z,2.88
2018-03-20T20:50:13.033Z,2.78
2018-03-20T20:52:40.560Z,2.68
2018-03-20T20:55:08.114Z,2.47
2018-03-20T20:57:35.675Z,2.47
2018-03-20T21:00:03.263Z,2.42
2018-03-20T21:02:30.771Z,2.44
2018-03-20T21:04:58.329Z,2.34
2018-03-20T21:07:25.880Z,2.33
2018-03-20T21:09:53.407Z,2.19
2018-03-20T21:12:21.878Z,2.06
2018-03-20T21:14:49.401Z,2.05
2018-03-20T21:17:17.494Z,1.83
2018-03-20T21:19:45.020Z,1.99
2018-03-20T21:22:12.584Z,1.82
2018-03-20T21:24:40.580Z,1.94
2018-03-20T21:27:08.240Z,1.92
2018-03-20T21:29:35.823Z,1.73
2018-03-20T21:32:03.784Z,1.79
2018-03-20T21:34:31.685Z,1.63
2018-03-20T21:36:59.353Z,1.58
2018-03-20T21:39:26.886Z,1.57
2018-03-20T21:41:55.566Z,1.48
2018-03-20T21:44:24.628Z,1.53
2018-03-20T21:46:53.040Z,1.37
2018-03-20T21:49:20.577Z,1.33
2018-03-20T21:51:48.488Z,1.35
2018-03-20T21:54:16.404Z,1.40
2018-03-20T21:56:44.005Z,1.24
2018-03-20T21:59:12.223Z,1.21
2018-03-20T22:01:39.791Z,1.20
2018-03-20T22:04:07.408Z,1.15
2018-03-20T22:06:35.011Z,1.16
2018-03-20T22:09:02.750Z,1.16
2018-03-20T22:11:30.510Z,1.14
2018-03-20T22:13:58.333Z,1.17
2018-03-20T22:16:26.271Z,1.07
2018-03-20T22:18:54.246Z,1.00
2018-03-20T22:21:22.766Z,0.94
2018-03-20T22:23:50.323Z,0.86
2018-03-20T22:26:18.045Z,0.81
2018-03-20T22:28:46.230Z,0.90
2018-03-20T22:31:13.783Z,0.80
2018-03-20T22:33:41.405Z,0.78
2018-03-20T22:36:09.660Z,0.74
2018-03-20T22:38:37.954Z,0.67
2018-03-20T22:41:05.497Z,0.70
2018-03-20T22:43:33.243Z,0.71
2018-03-20T22:46:01.042Z,0.73
2018-03-20T22:48:29.352Z,0.66
2018-03-20T22:50:56.896Z,0.59
2018-03-20T22:53:25.471Z,0.59
2018-03-20T22:55:54.738Z,0.55
2018-03-20T22:58:22.519Z,0.50
2018-03-20T23:00:50.063Z,0.45
2018-03-20T23:03:18.033Z,0.34
2018-03-20T23:05:45.716Z,0.35
2018-03-20T23:08:13.283Z,0.28
2018-03-20T23:10:40.818Z,0.29
2018-03-20T23:13:08.376Z,0.26
2018-03-20T23:15:35.919Z,0.12
2018-03-20T23:18:03.476Z,0.06
2018-03-20T23:20:31.069Z,-0.04
2018-03-20T23:23:01.058Z,-0.02
2018-03-20T23:25:28.685Z,-0.09
2018-03-20T23:27:57.054Z,0.05
2018-03-20T23:30:25.456Z,-0.15
2018-03-20T23:32:54.187Z,-0.13
2018-03-20T23:35:22.986Z,-0.29
2018-03-20T23:37:50.841Z,-0.12
2018-03-20T23:40:18.740Z,-0.18
2018-03-20T23:42:46.301Z,-0.19
2018-03-20T23:45:14.015Z,-0.12
2018-03-20T23:47:42.141Z,-0.12
2018-03-20T23:50:09.963Z,-0.16
2018-03-20T23:52:37.889Z,-0.12
2018-03-20T23:55:06.503Z,-0.08
2018-03-20T23:57:34.127Z,-0.03
